createdAt,value
2019-03-29T00:03:56.787Z,40.20
2019-03-29T00:08:52.611Z,41.60
2019-03-29T00:13:44.072Z,41.60
2019-03-29T00:18:36.570Z,41.70
2019-03-29T00:23:26.869Z,41.90
2019-03-29T00:28:20.437Z,41.40
2019-03-29T00:33:11.872Z,40.00
2019-03-29T00:38:03.211Z,37.60
2019-03-29T00:42:56.824Z,41.50
2019-03-29T00:47:48.289Z,40.50
2019-03-29T00:52:39.661Z,39.40
2019-03-29T00:57:35.560Z,46.80
2019-03-29T01:02:29.213Z,44.10
2019-03-29T01:07:20.628Z,44.80
2019-03-29T01:12:12.052Z,43.80
2019-03-29T01:17:03.466Z,46.00
2019-03-29T01:21:54.857Z,45.70
2019-03-29T01:26:46.217Z,46.00
2019-03-29T01:31:37.575Z,46.80
2019-03-29T01:36:29.013Z,45.40
2019-03-29T01:41:20.357Z,47.80
2019-03-29T01:46:12.501Z,48.50
2019-03-29T01:51:03.126Z,47.70
2019-03-29T01:55:56.787Z,51.40
2019-03-29T02:00:50.482Z,55.20
2019-03-29T02:05:41.894Z,50.60
2019-03-29T02:10:35.521Z,53.60
2019-03-29T02:15:26.956Z,53.80
2019-03-29T02:20:18.416Z,55.90
2019-03-29T02:25:09.711Z,62.00
2019-03-29T02:30:01.144Z,62.90
2019-03-29T02:34:52.526Z,58.20
2019-03-29T02:39:46.257Z,52.50
2019-03-29T02:44:37.679Z,53.00
2019-03-29T02:49:29.100Z,51.00
2019-03-29T02:54:20.468Z,54.70
2019-03-29T02:59:11.862Z,58.50
2019-03-29T03:04:03.244Z,56.80
2019-03-29T03:09:15.010Z,58.00
2019-03-29T03:13:46.024Z,71.80
2019-03-29T03:18:37.554Z,67.40
2019-03-29T03:23:28.803Z,74.20
2019-03-29T03:28:20.173Z,82.60
2019-03-29T03:33:11.579Z,80.10
2019-03-29T03:38:02.954Z,87.40
2019-03-29T03:42:54.322Z,83.30
2019-03-29T03:47:45.689Z,85.40
2019-03-29T03:52:37.027Z,89.70
2019-03-29T03:57:28.459Z,85.00
2019-03-29T04:02:19.815Z,88.00
2019-03-29T04:07:11.226Z,89.90
2019-03-29T04:12:02.635Z,87.00
2019-03-29T04:16:53.958Z,86.20
2019-03-29T04:21:45.360Z,92.70
2019-03-29T04:26:36.720Z,96.30
2019-03-29T04:31:28.094Z,99.90
2019-03-29T04:36:19.504Z,97.70
2019-03-29T04:41:10.963Z,92.70
2019-03-29T04:46:02.314Z,94.60
2019-03-29T04:50:53.669Z,98.60
2019-03-29T04:55:45.031Z,96.60
2019-03-29T05:00:36.386Z,97.10
2019-03-29T05:05:27.797Z,95.40
2019-03-29T05:10:22.354Z,98.00
2019-03-29T05:15:10.538Z,96.90
2019-03-29T05:20:01.972Z,99.70
2019-03-29T05:24:53.301Z,99.90
2019-03-29T05:29:44.727Z,98.90
2019-03-29T05:34:36.085Z,94.10
2019-03-29T05:39:27.502Z,91.50
2019-03-29T05:44:18.850Z,93.60
2019-03-29T05:49:10.272Z,96.00
2019-03-29T05:54:01.654Z,93.60
2019-03-29T05:58:53.054Z,95.10
2019-03-29T06:03:44.477Z,96.90
2019-03-29T06:08:35.828Z,99.90
2019-03-29T06:13:27.232Z,95.80
2019-03-29T06:18:18.639Z,92.90
2019-03-29T06:23:10.086Z,93.50
2019-03-29T06:28:01.424Z,91.20
2019-03-29T06:32:52.859Z,90.40
2019-03-29T06:42:35.620Z,93.60
2019-03-29T06:47:27.013Z,99.90
2019-03-29T06:52:18.462Z,99.90
2019-03-29T06:57:09.829Z,97.70
2019-03-29T07:02:01.193Z,96.60
2019-03-29T07:06:52.653Z,93.50
2019-03-29T07:11:44.054Z,92.20
2019-03-29T07:16:35.395Z,89.40
2019-03-29T07:21:26.810Z,88.10
2019-03-29T07:26:18.141Z,82.60
2019-03-29T07:31:09.551Z,80.60
2019-03-29T07:36:00.991Z,78.70
2019-03-29T07:40:52.368Z,75.70
2019-03-29T07:45:43.675Z,73.50
2019-03-29T07:50:35.106Z,67.50
2019-03-29T07:55:26.466Z,65.60
2019-03-29T08:00:21.070Z,64.00
2019-03-29T08:05:09.216Z,59.90
2019-03-29T08:10:04.507Z,56.80
2019-03-29T08:14:51.969Z,53.80
2019-03-29T08:19:43.425Z,51.20
2019-03-29T08:24:34.749Z,45.40
2019-03-29T08:29:26.152Z,40.80
2019-03-29T08:34:17.560Z,37.40
2019-03-29T08:39:10.826Z,37.30
2019-03-29T08:44:00.296Z,35.60
2019-03-29T08:48:51.730Z,32.30
2019-03-29T08:53:43.084Z,30.50
2019-03-29T08:58:34.533Z,28.40
2019-03-29T09:03:25.898Z,28.50
2019-03-29T09:08:17.313Z,28.40
2019-03-29T09:13:08.629Z,27.80
2019-03-29T09:18:00.559Z,27.90
2019-03-29T09:22:51.445Z,25.50
2019-03-29T09:27:42.884Z,25.50
2019-03-29T09:32:34.185Z,22.00
2019-03-29T09:37:25.526Z,21.40
2019-03-29T09:42:30.778Z,21.70
2019-03-29T09:47:08.317Z,20.00
2019-03-29T09:51:59.929Z,21.50
2019-03-29T09:56:51.122Z,21.10
2019-03-29T10:01:42.462Z,19.10
2019-03-29T10:06:34.878Z,18.30
2019-03-29T10:11:25.285Z,17.90
2019-03-29T10:16:16.630Z,21.00
2019-03-29T10:21:08.074Z,16.60
2019-03-29T10:25:59.406Z,17.80
2019-03-29T10:30:50.863Z,15.80
2019-03-29T10:35:53.265Z,16.50
2019-03-29T10:40:33.566Z,16.80
2019-03-29T10:45:24.955Z,15.90
2019-03-29T10:50:16.335Z,16.40
2019-03-29T10:55:07.688Z,18.30
2019-03-29T10:59:59.076Z,17.50
2019-03-29T11:04:50.457Z,18.20
2019-03-29T11:09:41.852Z,16.40
2019-03-29T11:14:33.217Z,13.90
2019-03-29T11:19:24.568Z,14.00
2019-03-29T11:24:15.987Z,14.90
2019-03-29T11:29:09.948Z,14.70
2019-03-29T11:34:01.695Z,15.10
2019-03-29T11:38:52.838Z,12.90
2019-03-29T11:43:44.186Z,13.90
2019-03-29T11:48:35.544Z,15.10
2019-03-29T11:53:26.982Z,14.70
2019-03-29T11:58:18.347Z,14.20
2019-03-29T12:03:10.353Z,12.70
2019-03-29T12:08:01.206Z,13.40
2019-03-29T12:12:52.514Z,11.50
2019-03-29T12:17:43.791Z,11.50
2019-03-29T12:22:35.284Z,12.70
2019-03-29T12:27:26.592Z,12.60
2019-03-29T12:32:18.011Z,13.00
2019-03-29T12:37:09.388Z,9.80
2019-03-29T12:42:00.780Z,10.20
2019-03-29T12:46:52.184Z,13.10
2019-03-29T12:51:47.310Z,11.50
2019-03-29T12:56:34.919Z,10.30
2019-03-29T13:01:40.538Z,11.20
2019-03-29T13:06:17.717Z,9.00
2019-03-29T13:11:09.144Z,11.30
2019-03-29T13:16:00.503Z,11.50
2019-03-29T13:20:51.961Z,12.50
2019-03-29T13:25:43.238Z,12.60
2019-03-29T13:30:34.675Z,12.80
2019-03-29T13:35:25.994Z,11.90
2019-03-29T13:40:17.445Z,11.30
2019-03-29T13:45:10.999Z,12.90
2019-03-29T13:50:02.485Z,13.40
2019-03-29T13:54:53.830Z,10.30
2019-03-29T13:59:45.218Z,9.40
2019-03-29T14:04:36.713Z,10.20
2019-03-29T14:09:29.906Z,10.10
2019-03-29T14:14:19.403Z,10.60
2019-03-29T14:19:10.766Z,9.00
2019-03-29T14:24:02.211Z,9.10
2019-03-29T14:28:53.686Z,9.40
2019-03-29T14:33:45.036Z,9.80
2019-03-29T14:38:36.462Z,10.50
2019-03-29T14:43:27.824Z,8.00
2019-03-29T14:48:19.582Z,9.70
2019-03-29T14:53:10.646Z,10.60
2019-03-29T14:58:02.049Z,9.90
2019-03-29T15:02:53.407Z,10.90
2019-03-29T15:07:44.862Z,11.00
2019-03-29T15:12:38.357Z,11.20
2019-03-29T15:17:29.807Z,11.60
2019-03-29T15:22:21.202Z,11.30
2019-03-29T15:27:12.954Z,11.70
2019-03-29T15:32:03.899Z,11.10
2019-03-29T15:36:55.388Z,12.10
2019-03-29T15:41:46.825Z,11.50
2019-03-29T15:46:38.150Z,12.20
2019-03-29T15:51:29.441Z,11.70
2019-03-29T15:56:20.867Z,12.30
2019-03-29T16:06:03.786Z,12.70
2019-03-29T16:10:55.080Z,12.90
2019-03-29T16:15:46.633Z,13.00
2019-03-29T16:20:37.872Z,13.70
2019-03-29T16:25:29.332Z,12.10
2019-03-29T16:30:20.621Z,13.90
2019-03-29T16:35:12.073Z,13.80
2019-03-29T16:40:03.472Z,14.40
2019-03-29T16:44:54.862Z,13.70
2019-03-29T16:49:46.163Z,14.00
2019-03-29T16:54:37.651Z,13.30
2019-03-29T16:59:29.012Z,13.70
2019-03-29T17:04:20.497Z,13.30
2019-03-29T17:09:11.768Z,13.00
2019-03-29T17:14:03.239Z,13.50
2019-03-29T17:18:54.639Z,13.50
2019-03-29T17:23:45.951Z,13.60
2019-03-29T17:28:37.453Z,13.10
2019-03-29T17:33:28.856Z,13.30
2019-03-29T17:38:20.216Z,13.50
2019-03-29T17:43:11.640Z,13.60
2019-03-29T17:48:03.023Z,14.30
2019-03-29T17:52:54.442Z,14.90
2019-03-29T17:57:45.772Z,15.80
2019-03-29T18:02:37.254Z,15.80
2019-03-29T18:07:28.527Z,17.10
2019-03-29T18:12:19.937Z,17.30
2019-03-29T18:17:11.317Z,18.30
2019-03-29T18:22:02.732Z,18.90
2019-03-29T18:26:54.105Z,19.50
2019-03-29T18:31:45.584Z,20.40
2019-03-29T18:36:36.910Z,20.50
2019-03-29T18:41:28.308Z,21.20
2019-03-29T18:46:19.628Z,22.10
2019-03-29T18:51:11.117Z,22.30
2019-03-29T18:56:02.367Z,24.10
2019-03-29T19:00:53.811Z,23.60
2019-03-29T19:05:45.194Z,25.30
2019-03-29T19:10:36.614Z,25.10
2019-03-29T19:15:28.006Z,26.00
2019-03-29T19:20:28.680Z,27.40
2019-03-29T19:25:10.770Z,28.20
2019-03-29T19:30:02.150Z,28.90
2019-03-29T19:34:53.607Z,29.20
2019-03-29T19:39:44.910Z,29.40
2019-03-29T19:44:36.298Z,30.90
2019-03-29T19:49:27.702Z,32.60
2019-03-29T19:54:19.165Z,33.80
2019-03-29T19:59:10.476Z,32.90
2019-03-29T20:04:01.925Z,32.80
2019-03-29T20:09:00.916Z,33.00
2019-03-29T20:13:58.171Z,32.20
2019-03-29T20:18:51.798Z,33.10
2019-03-29T20:23:43.263Z,33.20
2019-03-29T20:28:34.644Z,34.40
2019-03-29T20:33:26.113Z,34.90
2019-03-29T20:38:17.413Z,36.00
2019-03-29T20:43:08.828Z,37.00
2019-03-29T20:48:00.246Z,39.20
2019-03-29T20:52:51.646Z,37.90
2019-03-29T20:57:43.027Z,39.60
2019-03-29T21:02:38.878Z,49.70
2019-03-29T21:07:30.330Z,43.90
2019-03-29T21:12:21.697Z,46.70
2019-03-29T21:17:17.574Z,41.10
2019-03-29T21:22:09.037Z,40.70
2019-03-29T21:27:00.454Z,42.30
2019-03-29T21:31:58.546Z,45.30
2019-03-29T21:36:49.957Z,43.20
2019-03-29T21:41:43.578Z,44.40
2019-03-29T21:46:35.012Z,44.00
2019-03-29T21:51:26.398Z,43.50
2019-03-29T21:56:17.822Z,44.40
2019-03-29T22:01:09.213Z,44.20
2019-03-29T22:06:00.578Z,44.70
2019-03-29T22:10:51.967Z,44.20
2019-03-29T22:15:45.540Z,46.00
2019-03-29T22:20:39.199Z,46.10
2019-03-29T22:25:32.855Z,47.80
2019-03-29T22:35:22.474Z,47.80
2019-03-29T22:40:13.921Z,46.20
2019-03-29T22:45:05.346Z,46.40
2019-03-29T22:49:56.667Z,48.80
2019-03-29T22:54:48.146Z,51.40
2019-03-29T22:59:39.525Z,52.60
2019-03-29T23:04:30.866Z,54.00
2019-03-29T23:09:22.290Z,52.50
2019-03-29T23:14:13.664Z,52.40
2019-03-29T23:19:07.534Z,55.50
2019-03-29T23:24:00.975Z,57.80
2019-03-29T23:28:52.461Z,57.70
2019-03-29T23:33:50.574Z,56.10
2019-03-29T23:38:42.044Z,62.00
2019-03-29T23:43:33.452Z,60.90
2019-03-29T23:48:24.799Z,58.90
2019-03-29T23:53:16.169Z,57.90
2019-03-29T23:58:07.571Z,70.50
